sensor_id;sensor_type;location;lat;lon;timestamp;P1;durP1;ratioP1;P2;durP2;ratioP2
21038;SDS011;10678;51.002;4.786;2022-11-15T00:01:08;25.85;;;15.63;;
21038;SDS011;10678;51.002;4.786;2022-11-15T00:03:34;25.10;;;14.93;;
21038;SDS011;10678;51.002;4.786;2022-11-15T00:06:03;28.50;;;15.38;;
21038;SDS011;10678;51.002;4.786;2022-11-15T00:08:30;24.08;;;14.13;;
21038;SDS011;10678;51.002;4.786;2022-11-15T00:10:57;29.23;;;15.68;;
21038;SDS011;10678;51.002;4.786;2022-11-15T00:13:24;27.23;;;15.27;;
21038;SDS011;10678;51.002;4.786;2022-11-15T00:15:49;25.83;;;14.30;;
21038;SDS011;10678;51.002;4.786;2022-11-15T00:18:15;29.48;;;15.85;;
21038;SDS011;10678;51.002;4.786;2022-11-15T00:20:42;24.20;;;14.32;;
21038;SDS011;10678;51.002;4.786;2022-11-15T00:23:07;31.60;;;15.40;;
21038;SDS011;10678;51.002;4.786;2022-11-15T00:25:33;27.08;;;13.93;;
21038;SDS011;10678;51.002;4.786;2022-11-15T00:27:59;28.63;;;15.98;;
21038;SDS011;10678;51.002;4.786;2022-11-15T00:30:25;25.45;;;15.55;;
21038;SDS011;10678;51.002;4.786;2022-11-15T00:32:51;29.35;;;14.68;;
21038;SDS011;10678;51.002;4.786;2022-11-15T00:35:17;28.25;;;15.40;;
21038;SDS011;10678;51.002;4.786;2022-11-15T00:37:43;29.77;;;15.85;;
21038;SDS011;10678;51.002;4.786;2022-11-15T00:40:09;29.55;;;16.33;;
21038;SDS011;10678;51.002;4.786;2022-11-15T00:42:35;26.27;;;15.95;;
21038;SDS011;10678;51.002;4.786;2022-11-15T00:45:01;27.88;;;15.23;;
21038;SDS011;10678;51.002;4.786;2022-11-15T00:47:27;28.65;;;15.52;;
21038;SDS011;10678;51.002;4.786;2022-11-15T00:49:52;26.52;;;14.98;;
21038;SDS011;10678;51.002;4.786;2022-11-15T00:52:18;29.25;;;15.18;;
21038;SDS011;10678;51.002;4.786;2022-11-15T00:54:43;27.13;;;15.63;;
21038;SDS011;10678;51.002;4.786;2022-11-15T00:57:09;28.67;;;15.68;;
21038;SDS011;10678;51.002;4.786;2022-11-15T00:59:35;32.47;;;16.50;;
21038;SDS011;10678;51.002;4.786;2022-11-15T01:02:00;27.88;;;15.38;;
21038;SDS011;10678;51.002;4.786;2022-11-15T01:04:26;32.00;;;16.83;;
21038;SDS011;10678;51.002;4.786;2022-11-15T01:06:52;30.15;;;15.80;;
21038;SDS011;10678;51.002;4.786;2022-11-15T01:09:17;34.30;;;15.50;;
21038;SDS011;10678;51.002;4.786;2022-11-15T01:11:43;26.08;;;15.20;;
21038;SDS011;10678;51.002;4.786;2022-11-15T01:14:09;30.58;;;15.18;;
21038;SDS011;10678;51.002;4.786;2022-11-15T01:16:34;32.70;;;16.33;;
21038;SDS011;10678;51.002;4.786;2022-11-15T01:19:00;24.13;;;15.25;;
21038;SDS011;10678;51.002;4.786;2022-11-15T01:21:26;27.10;;;15.50;;
21038;SDS011;10678;51.002;4.786;2022-11-15T01:23:55;26.48;;;14.75;;
21038;SDS011;10678;51.002;4.786;2022-11-15T01:26:22;33.08;;;15.93;;
21038;SDS011;10678;51.002;4.786;2022-11-15T01:28:49;27.23;;;15.70;;
21038;SDS011;10678;51.002;4.786;2022-11-15T01:31:15;29.88;;;15.88;;
21038;SDS011;10678;51.002;4.786;2022-11-15T01:33:42;29.10;;;15.73;;
21038;SDS011;10678;51.002;4.786;2022-11-15T01:36:12;26.13;;;15.50;;
21038;SDS011;10678;51.002;4.786;2022-11-15T01:38:39;32.60;;;16.17;;
21038;SDS011;10678;51.002;4.786;2022-11-15T01:41:05;35.13;;;15.63;;
21038;SDS011;10678;51.002;4.786;2022-11-15T01:43:32;29.00;;;15.43;;
21038;SDS011;10678;51.002;4.786;2022-11-15T01:48:39;29.70;;;14.80;;
21038;SDS011;10678;51.002;4.786;2022-11-15T01:51:07;30.73;;;15.88;;
21038;SDS011;10678;51.002;4.786;2022-11-15T01:53:36;30.75;;;15.80;;
21038;SDS011;10678;51.002;4.786;2022-11-15T01:56:09;31.58;;;16.67;;
21038;SDS011;10678;51.002;4.786;2022-11-15T01:58:38;26.95;;;15.60;;
21038;SDS011;10678;51.002;4.786;2022-11-15T02:01:06;31.38;;;15.70;;
21038;SDS011;10678;51.002;4.786;2022-11-15T02:03:41;34.47;;;17.13;;
21038;SDS011;10678;51.002;4.786;2022-11-15T02:06:15;27.63;;;16.33;;
21038;SDS011;10678;51.002;4.786;2022-11-15T02:08:41;28.58;;;16.63;;
21038;SDS011;10678;51.002;4.786;2022-11-15T02:11:08;28.02;;;15.90;;
21038;SDS011;10678;51.002;4.786;2022-11-15T02:13:34;29.80;;;16.30;;
21038;SDS011;10678;51.002;4.786;2022-11-15T02:22:14;28.83;;;16.17;;
21038;SDS011;10678;51.002;4.786;2022-11-15T02:25:08;32.55;;;16.35;;
21038;SDS011;10678;51.002;4.786;2022-11-15T02:30:45;29.50;;;16.85;;
21038;SDS011;10678;51.002;4.786;2022-11-15T02:36:28;26.00;;;16.40;;
21038;SDS011;10678;51.002;4.786;2022-11-15T02:41:52;29.50;;;16.98;;
21038;SDS011;10678;51.002;4.786;2022-11-15T02:45:04;32.00;;;16.63;;
21038;SDS011;10678;51.002;4.786;2022-11-15T02:47:33;31.52;;;16.60;;
21038;SDS011;10678;51.002;4.786;2022-11-15T02:50:08;29.35;;;17.52;;
21038;SDS011;10678;51.002;4.786;2022-11-15T02:52:37;27.05;;;14.85;;
21038;SDS011;10678;51.002;4.786;2022-11-15T02:55:02;30.38;;;16.58;;
21038;SDS011;10678;51.002;4.786;2022-11-15T03:00:34;25.67;;;16.30;;
21038;SDS011;10678;51.002;4.786;2022-11-15T03:08:48;28.17;;;15.93;;
21038;SDS011;10678;51.002;4.786;2022-11-15T03:11:29;27.60;;;14.60;;
21038;SDS011;10678;51.002;4.786;2022-11-15T03:14:15;27.08;;;15.63;;
21038;SDS011;10678;51.002;4.786;2022-11-15T03:19:46;29.65;;;16.13;;
21038;SDS011;10678;51.002;4.786;2022-11-15T03:22:16;28.73;;;16.52;;
21038;SDS011;10678;51.002;4.786;2022-11-15T03:24:44;29.35;;;15.82;;
21038;SDS011;10678;51.002;4.786;2022-11-15T03:27:12;24.25;;;15.27;;
21038;SDS011;10678;51.002;4.786;2022-11-15T03:29:46;25.00;;;15.80;;
21038;SDS011;10678;51.002;4.786;2022-11-15T03:32:22;26.85;;;16.10;;
21038;SDS011;10678;51.002;4.786;2022-11-15T03:35:09;29.33;;;15.57;;
21038;SDS011;10678;51.002;4.786;2022-11-15T03:37:44;25.20;;;15.43;;
21038;SDS011;10678;51.002;4.786;2022-11-15T03:40:15;24.63;;;14.23;;
21038;SDS011;10678;51.002;4.786;2022-11-15T03:45:23;23.38;;;13.93;;
21038;SDS011;10678;51.002;4.786;2022-11-15T03:48:02;25.42;;;15.40;;
21038;SDS011;10678;51.002;4.786;2022-11-15T03:50:34;23.45;;;14.90;;
21038;SDS011;10678;51.002;4.786;2022-11-15T03:53:00;23.75;;;13.85;;
21038;SDS011;10678;51.002;4.786;2022-11-15T03:55:25;25.88;;;14.20;;
21038;SDS011;10678;51.002;4.786;2022-11-15T03:57:53;23.92;;;14.93;;
21038;SDS011;10678;51.002;4.786;2022-11-15T04:00:21;23.80;;;15.07;;
21038;SDS011;10678;51.002;4.786;2022-11-15T04:02:47;27.85;;;16.13;;
21038;SDS011;10678;51.002;4.786;2022-11-15T04:05:12;27.38;;;15.82;;
21038;SDS011;10678;51.002;4.786;2022-11-15T04:07:38;24.60;;;15.27;;
21038;SDS011;10678;51.002;4.786;2022-11-15T04:10:04;27.73;;;14.35;;
21038;SDS011;10678;51.002;4.786;2022-11-15T04:12:34;28.17;;;15.57;;
21038;SDS011;10678;51.002;4.786;2022-11-15T04:15:09;32.25;;;16.85;;
21038;SDS011;10678;51.002;4.786;2022-11-15T04:17:43;28.33;;;15.40;;
21038;SDS011;10678;51.002;4.786;2022-11-15T04:20:19;29.27;;;14.77;;
21038;SDS011;10678;51.002;4.786;2022-11-15T04:23:22;26.67;;;16.05;;
21038;SDS011;10678;51.002;4.786;2022-11-15T04:26:08;25.48;;;14.20;;
21038;SDS011;10678;51.002;4.786;2022-11-15T04:28:36;25.90;;;14.70;;
21038;SDS011;10678;51.002;4.786;2022-11-15T04:31:25;27.40;;;13.57;;
21038;SDS011;10678;51.002;4.786;2022-11-15T04:33:51;30.23;;;14.00;;
21038;SDS011;10678;51.002;4.786;2022-11-15T04:36:17;24.13;;;13.35;;
21038;SDS011;10678;51.002;4.786;2022-11-15T04:39:02;34.40;;;13.43;;
21038;SDS011;10678;51.002;4.786;2022-11-15T04:41:28;25.70;;;13.63;;
21038;SDS011;10678;51.002;4.786;2022-11-15T04:43:54;28.35;;;14.50;;
21038;SDS011;10678;51.002;4.786;2022-11-15T04:46:20;24.60;;;14.15;;
21038;SDS011;10678;51.002;4.786;2022-11-15T04:48:46;25.48;;;13.27;;
21038;SDS011;10678;51.002;4.786;2022-11-15T04:51:11;23.10;;;13.38;;
21038;SDS011;10678;51.002;4.786;2022-11-15T04:53:37;26.70;;;13.77;;
21038;SDS011;10678;51.002;4.786;2022-11-15T04:56:02;20.52;;;13.40;;
21038;SDS011;10678;51.002;4.786;2022-11-15T04:58:28;21.48;;;12.05;;
21038;SDS011;10678;51.002;4.786;2022-11-15T05:00:54;20.75;;;12.23;;
21038;SDS011;10678;51.002;4.786;2022-11-15T05:03:19;20.92;;;12.90;;
21038;SDS011;10678;51.002;4.786;2022-11-15T05:06:04;22.77;;;12.38;;
21038;SDS011;10678;51.002;4.786;2022-11-15T05:08:30;21.52;;;11.65;;
21038;SDS011;10678;51.002;4.786;2022-11-15T05:10:56;25.25;;;11.65;;
21038;SDS011;10678;51.002;4.786;2022-11-15T05:13:22;19.13;;;11.60;;
21038;SDS011;10678;51.002;4.786;2022-11-15T05:15:47;17.13;;;10.82;;
21038;SDS011;10678;51.002;4.786;2022-11-15T05:18:13;18.58;;;11.18;;
21038;SDS011;10678;51.002;4.786;2022-11-15T05:20:39;22.48;;;10.88;;
21038;SDS011;10678;51.002;4.786;2022-11-15T05:23:04;20.92;;;10.48;;
21038;SDS011;10678;51.002;4.786;2022-11-15T05:25:30;23.35;;;10.85;;
21038;SDS011;10678;51.002;4.786;2022-11-15T05:27:56;24.88;;;10.50;;
21038;SDS011;10678;51.002;4.786;2022-11-15T05:30:22;21.17;;;10.23;;
21038;SDS011;10678;51.002;4.786;2022-11-15T05:32:47;19.15;;;10.10;;
21038;SDS011;10678;51.002;4.786;2022-11-15T05:35:17;20.20;;;9.75;;
21038;SDS011;10678;51.002;4.786;2022-11-15T05:37:52;20.30;;;10.18;;
21038;SDS011;10678;51.002;4.786;2022-11-15T05:40:18;20.85;;;10.90;;
21038;SDS011;10678;51.002;4.786;2022-11-15T05:42:44;13.38;;;8.73;;
21038;SDS011;10678;51.002;4.786;2022-11-15T05:45:11;18.88;;;9.25;;
21038;SDS011;10678;51.002;4.786;2022-11-15T05:47:37;18.48;;;8.82;;
21038;SDS011;10678;51.002;4.786;2022-11-15T05:50:04;16.42;;;8.75;;
21038;SDS011;10678;51.002;4.786;2022-11-15T05:52:31;14.43;;;8.23;;
21038;SDS011;10678;51.002;4.786;2022-11-15T05:55:01;15.85;;;8.00;;
21038;SDS011;10678;51.002;4.786;2022-11-15T05:57:28;14.88;;;7.90;;
21038;SDS011;10678;51.002;4.786;2022-11-15T05:59:53;15.75;;;8.20;;
21038;SDS011;10678;51.002;4.786;2022-11-15T06:02:20;14.60;;;7.63;;
21038;SDS011;10678;51.002;4.786;2022-11-15T06:04:45;13.52;;;7.43;;
21038;SDS011;10678;51.002;4.786;2022-11-15T06:07:11;18.20;;;7.88;;
21038;SDS011;10678;51.002;4.786;2022-11-15T06:09:36;13.98;;;7.25;;
21038;SDS011;10678;51.002;4.786;2022-11-15T06:12:02;18.15;;;7.00;;
21038;SDS011;10678;51.002;4.786;2022-11-15T06:14:28;15.32;;;6.40;;
21038;SDS011;10678;51.002;4.786;2022-11-15T06:16:53;14.85;;;7.05;;
21038;SDS011;10678;51.002;4.786;2022-11-15T06:19:19;16.80;;;6.80;;
21038;SDS011;10678;51.002;4.786;2022-11-15T06:21:44;13.07;;;6.78;;
21038;SDS011;10678;51.002;4.786;2022-11-15T06:24:10;15.15;;;6.25;;
21038;SDS011;10678;51.002;4.786;2022-11-15T06:26:35;16.20;;;6.40;;
21038;SDS011;10678;51.002;4.786;2022-11-15T06:29:02;12.35;;;6.10;;
21038;SDS011;10678;51.002;4.786;2022-11-15T06:31:29;13.15;;;6.05;;
21038;SDS011;10678;51.002;4.786;2022-11-15T06:33:54;15.82;;;6.07;;
21038;SDS011;10678;51.002;4.786;2022-11-15T06:36:20;14.48;;;5.63;;
21038;SDS011;10678;51.002;4.786;2022-11-15T06:38:45;16.33;;;6.85;;
21038;SDS011;10678;51.002;4.786;2022-11-15T06:41:11;12.98;;;5.43;;
21038;SDS011;10678;51.002;4.786;2022-11-15T06:43:38;11.00;;;6.20;;
21038;SDS011;10678;51.002;4.786;2022-11-15T06:46:05;14.05;;;6.15;;
21038;SDS011;10678;51.002;4.786;2022-11-15T06:48:32;16.85;;;6.78;;
21038;SDS011;10678;51.002;4.786;2022-11-15T06:50:59;11.70;;;6.18;;
21038;SDS011;10678;51.002;4.786;2022-11-15T06:53:26;14.73;;;6.03;;
21038;SDS011;10678;51.002;4.786;2022-11-15T06:55:52;10.95;;;5.80;;
21038;SDS011;10678;51.002;4.786;2022-11-15T06:58:18;12.93;;;5.97;;
21038;SDS011;10678;51.002;4.786;2022-11-15T07:00:45;15.02;;;5.88;;
21038;SDS011;10678;51.002;4.786;2022-11-15T07:03:11;15.27;;;6.45;;
21038;SDS011;10678;51.002;4.786;2022-11-15T07:05:36;12.80;;;6.15;;
21038;SDS011;10678;51.002;4.786;2022-11-15T07:08:02;12.70;;;6.88;;
21038;SDS011;10678;51.002;4.786;2022-11-15T07:10:28;12.85;;;7.43;;
21038;SDS011;10678;51.002;4.786;2022-11-15T07:12:54;14.35;;;6.18;;
21038;SDS011;10678;51.002;4.786;2022-11-15T07:15:21;15.82;;;7.05;;
21038;SDS011;10678;51.002;4.786;2022-11-15T07:17:48;15.38;;;6.60;;
21038;SDS011;10678;51.002;4.786;2022-11-15T07:20:14;12.00;;;6.05;;
21038;SDS011;10678;51.002;4.786;2022-11-15T07:22:41;10.30;;;6.30;;
21038;SDS011;10678;51.002;4.786;2022-11-15T07:25:07;15.02;;;5.70;;
21038;SDS011;10678;51.002;4.786;2022-11-15T07:27:33;11.85;;;6.63;;
21038;SDS011;10678;51.002;4.786;2022-11-15T07:29:59;15.85;;;7.13;;
21038;SDS011;10678;51.002;4.786;2022-11-15T07:32:25;16.50;;;7.32;;
21038;SDS011;10678;51.002;4.786;2022-11-15T07:34:50;16.05;;;6.43;;
21038;SDS011;10678;51.002;4.786;2022-11-15T07:37:16;13.98;;;6.68;;
21038;SDS011;10678;51.002;4.786;2022-11-15T07:39:42;14.52;;;6.75;;
21038;SDS011;10678;51.002;4.786;2022-11-15T07:42:08;15.13;;;6.55;;
21038;SDS011;10678;51.002;4.786;2022-11-15T07:44:52;13.77;;;6.75;;
21038;SDS011;10678;51.002;4.786;2022-11-15T07:47:17;11.68;;;5.55;;
21038;SDS011;10678;51.002;4.786;2022-11-15T07:49:43;14.88;;;5.85;;
21038;SDS011;10678;51.002;4.786;2022-11-15T07:52:10;10.98;;;4.82;;
21038;SDS011;10678;51.002;4.786;2022-11-15T07:54:36;12.57;;;4.47;;
21038;SDS011;10678;51.002;4.786;2022-11-15T07:57:02;9.88;;;4.70;;
21038;SDS011;10678;51.002;4.786;2022-11-15T07:59:28;10.57;;;4.43;;
21038;SDS011;10678;51.002;4.786;2022-11-15T08:01:53;10.40;;;4.85;;
21038;SDS011;10678;51.002;4.786;2022-11-15T08:04:19;9.40;;;5.35;;
21038;SDS011;10678;51.002;4.786;2022-11-15T08:06:44;13.55;;;4.85;;
21038;SDS011;10678;51.002;4.786;2022-11-15T08:09:10;12.45;;;4.78;;
21038;SDS011;10678;51.002;4.786;2022-11-15T08:11:36;12.23;;;5.35;;
21038;SDS011;10678;51.002;4.786;2022-11-15T08:14:02;12.02;;;5.47;;
21038;SDS011;10678;51.002;4.786;2022-11-15T08:16:27;11.50;;;4.78;;
21038;SDS011;10678;51.002;4.786;2022-11-15T08:18:53;11.73;;;4.90;;
21038;SDS011;10678;51.002;4.786;2022-11-15T08:21:19;12.02;;;4.93;;
21038;SDS011;10678;51.002;4.786;2022-11-15T08:23:45;9.07;;;4.22;;
21038;SDS011;10678;51.002;4.786;2022-11-15T08:26:11;8.50;;;4.78;;
21038;SDS011;10678;51.002;4.786;2022-11-15T08:28:37;12.95;;;5.10;;
21038;SDS011;10678;51.002;4.786;2022-11-15T08:31:03;8.65;;;4.30;;
21038;SDS011;10678;51.002;4.786;2022-11-15T08:33:29;12.45;;;4.35;;
21038;SDS011;10678;51.002;4.786;2022-11-15T08:35:56;14.80;;;4.32;;
21038;SDS011;10678;51.002;4.786;2022-11-15T08:38:22;10.18;;;4.32;;
21038;SDS011;10678;51.002;4.786;2022-11-15T08:40:50;9.00;;;4.22;;
21038;SDS011;10678;51.002;4.786;2022-11-15T08:43:24;7.35;;;3.20;;
21038;SDS011;10678;51.002;4.786;2022-11-15T08:45:51;6.55;;;2.70;;
21038;SDS011;10678;51.002;4.786;2022-11-15T08:48:20;6.60;;;2.70;;
21038;SDS011;10678;51.002;4.786;2022-11-15T08:50:45;9.80;;;2.58;;
21038;SDS011;10678;51.002;4.786;2022-11-15T08:53:12;5.78;;;2.20;;
21038;SDS011;10678;51.002;4.786;2022-11-15T08:55:38;8.98;;;1.95;;
21038;SDS011;10678;51.002;4.786;2022-11-15T08:58:04;6.32;;;1.98;;
21038;SDS011;10678;51.002;4.786;2022-11-15T09:00:30;6.22;;;1.65;;
21038;SDS011;10678;51.002;4.786;2022-11-15T09:02:56;7.07;;;1.58;;
21038;SDS011;10678;51.002;4.786;2022-11-15T09:05:21;4.93;;;1.42;;
21038;SDS011;10678;51.002;4.786;2022-11-15T09:07:47;4.95;;;1.42;;
21038;SDS011;10678;51.002;4.786;2022-11-15T09:10:17;5.22;;;1.30;;
21038;SDS011;10678;51.002;4.786;2022-11-15T09:12:42;5.05;;;1.30;;
21038;SDS011;10678;51.002;4.786;2022-11-15T09:15:08;8.02;;;1.30;;
21038;SDS011;10678;51.002;4.786;2022-11-15T09:17:34;5.47;;;1.38;;
21038;SDS011;10678;51.002;4.786;2022-11-15T09:19:59;4.35;;;1.13;;
21038;SDS011;10678;51.002;4.786;2022-11-15T09:22:25;6.90;;;1.25;;
21038;SDS011;10678;51.002;4.786;2022-11-15T09:24:51;6.50;;;1.10;;
21038;SDS011;10678;51.002;4.786;2022-11-15T09:27:16;7.57;;;1.25;;
21038;SDS011;10678;51.002;4.786;2022-11-15T09:29:42;11.73;;;1.38;;
21038;SDS011;10678;51.002;4.786;2022-11-15T09:32:07;5.90;;;1.35;;
21038;SDS011;10678;51.002;4.786;2022-11-15T09:34:33;5.72;;;1.20;;
21038;SDS011;10678;51.002;4.786;2022-11-15T09:36:59;6.43;;;1.08;;
21038;SDS011;10678;51.002;4.786;2022-11-15T09:39:25;4.05;;;1.10;;
21038;SDS011;10678;51.002;4.786;2022-11-15T09:44:56;10.13;;;1.48;;
21038;SDS011;10678;51.002;4.786;2022-11-15T09:50:06;4.68;;;1.40;;
21038;SDS011;10678;51.002;4.786;2022-11-15T09:52:39;11.75;;;1.70;;
21038;SDS011;10678;51.002;4.786;2022-11-15T09:55:11;4.38;;;1.35;;
21038;SDS011;10678;51.002;4.786;2022-11-15T10:05:42;7.90;;;1.75;;
21038;SDS011;10678;51.002;4.786;2022-11-15T10:11:06;6.07;;;1.30;;
21038;SDS011;10678;51.002;4.786;2022-11-15T10:13:35;4.47;;;1.10;;
21038;SDS011;10678;51.002;4.786;2022-11-15T10:19:21;6.63;;;1.08;;
21038;SDS011;10678;51.002;4.786;2022-11-15T10:27:33;6.43;;;1.10;;
21038;SDS011;10678;51.002;4.786;2022-11-15T10:29:59;6.35;;;1.15;;
21038;SDS011;10678;51.002;4.786;2022-11-15T10:32:25;7.47;;;1.20;;
21038;SDS011;10678;51.002;4.786;2022-11-15T10:34:51;8.13;;;1.05;;
21038;SDS011;10678;51.002;4.786;2022-11-15T10:37:27;4.88;;;1.13;;
21038;SDS011;10678;51.002;4.786;2022-11-15T10:40:15;8.70;;;1.20;;
21038;SDS011;10678;51.002;4.786;2022-11-15T10:42:40;8.52;;;1.50;;
21038;SDS011;10678;51.002;4.786;2022-11-15T10:45:22;8.15;;;1.90;;
21038;SDS011;10678;51.002;4.786;2022-11-15T10:50:36;4.32;;;1.08;;
21038;SDS011;10678;51.002;4.786;2022-11-15T10:53:03;6.90;;;1.33;;
21038;SDS011;10678;51.002;4.786;2022-11-15T10:55:37;9.63;;;1.15;;
21038;SDS011;10678;51.002;4.786;2022-11-15T10:58:06;7.20;;;0.95;;
21038;SDS011;10678;51.002;4.786;2022-11-15T11:00:44;6.05;;;1.05;;
21038;SDS011;10678;51.002;4.786;2022-11-15T11:05:48;4.97;;;0.95;;
21038;SDS011;10678;51.002;4.786;2022-11-15T11:08:29;7.05;;;1.50;;
21038;SDS011;10678;51.002;4.786;2022-11-15T11:10:58;5.88;;;1.10;;
21038;SDS011;10678;51.002;4.786;2022-11-15T11:13:30;5.05;;;0.77;;
21038;SDS011;10678;51.002;4.786;2022-11-15T11:16:18;4.72;;;0.82;;
21038;SDS011;10678;51.002;4.786;2022-11-15T11:24:12;5.00;;;1.05;;
21038;SDS011;10678;51.002;4.786;2022-11-15T11:26:49;8.05;;;1.08;;
21038;SDS011;10678;51.002;4.786;2022-11-15T11:36:01;4.50;;;0.90;;
21038;SDS011;10678;51.002;4.786;2022-11-15T11:49:33;4.75;;;0.88;;
21038;SDS011;10678;51.002;4.786;2022-11-15T11:55:20;5.03;;;0.98;;
21038;SDS011;10678;51.002;4.786;2022-11-15T12:00:49;8.70;;;1.30;;
21038;SDS011;10678;51.002;4.786;2022-11-15T12:03:51;6.65;;;1.00;;
21038;SDS011;10678;51.002;4.786;2022-11-15T12:06:38;5.55;;;1.08;;
21038;SDS011;10678;51.002;4.786;2022-11-15T12:09:44;5.65;;;0.73;;
21038;SDS011;10678;51.002;4.786;2022-11-15T12:15:03;9.95;;;0.93;;
21038;SDS011;10678;51.002;4.786;2022-11-15T12:17:33;7.93;;;1.38;;
21038;SDS011;10678;51.002;4.786;2022-11-15T12:19:59;5.45;;;0.98;;
21038;SDS011;10678;51.002;4.786;2022-11-15T12:22:33;6.70;;;0.98;;
21038;SDS011;10678;51.002;4.786;2022-11-15T12:25:18;4.00;;;1.20;;
21038;SDS011;10678;51.002;4.786;2022-11-15T12:30:51;7.80;;;1.02;;
21038;SDS011;10678;51.002;4.786;2022-11-15T12:36:08;7.40;;;1.08;;
21038;SDS011;10678;51.002;4.786;2022-11-15T12:38:59;3.42;;;0.93;;
21038;SDS011;10678;51.002;4.786;2022-11-15T12:43:53;3.90;;;0.82;;
21038;SDS011;10678;51.002;4.786;2022-11-15T12:46:20;6.82;;;1.15;;
21038;SDS011;10678;51.002;4.786;2022-11-15T12:57:22;3.60;;;1.20;;
21038;SDS011;10678;51.002;4.786;2022-11-15T12:59:56;6.85;;;1.27;;
21038;SDS011;10678;51.002;4.786;2022-11-15T13:02:33;6.43;;;1.30;;
21038;SDS011;10678;51.002;4.786;2022-11-15T13:17:44;6.45;;;1.33;;
21038;SDS011;10678;51.002;4.786;2022-11-15T13:22:48;4.05;;;0.90;;
21038;SDS011;10678;51.002;4.786;2022-11-15T13:28:01;5.60;;;0.95;;
21038;SDS011;10678;51.002;4.786;2022-11-15T13:30:34;7.80;;;1.15;;
21038;SDS011;10678;51.002;4.786;2022-11-15T13:33:07;7.75;;;1.40;;
21038;SDS011;10678;51.002;4.786;2022-11-15T13:35:36;4.70;;;1.30;;
21038;SDS011;10678;51.002;4.786;2022-11-15T13:38:05;5.47;;;1.00;;
21038;SDS011;10678;51.002;4.786;2022-11-15T13:40:34;3.67;;;0.90;;
21038;SDS011;10678;51.002;4.786;2022-11-15T13:45:45;7.45;;;1.42;;
21038;SDS011;10678;51.002;4.786;2022-11-15T13:48:29;3.38;;;1.20;;
21038;SDS011;10678;51.002;4.786;2022-11-15T13:50:54;6.55;;;1.23;;
21038;SDS011;10678;51.002;4.786;2022-11-15T13:53:22;4.28;;;1.08;;
21038;SDS011;10678;51.002;4.786;2022-11-15T13:55:48;8.70;;;1.10;;
21038;SDS011;10678;51.002;4.786;2022-11-15T13:58:14;4.32;;;1.38;;
21038;SDS011;10678;51.002;4.786;2022-11-15T14:00:44;6.97;;;1.10;;
21038;SDS011;10678;51.002;4.786;2022-11-15T14:05:44;9.98;;;1.38;;
21038;SDS011;10678;51.002;4.786;2022-11-15T14:08:27;5.47;;;1.48;;
21038;SDS011;10678;51.002;4.786;2022-11-15T14:16:38;2.55;;;0.85;;
21038;SDS011;10678;51.002;4.786;2022-11-15T14:19:06;3.60;;;0.90;;
21038;SDS011;10678;51.002;4.786;2022-11-15T14:27:31;4.53;;;1.00;;
21038;SDS011;10678;51.002;4.786;2022-11-15T14:29:58;2.97;;;1.10;;
21038;SDS011;10678;51.002;4.786;2022-11-15T14:32:25;3.53;;;0.90;;
21038;SDS011;10678;51.002;4.786;2022-11-15T14:34:57;2.97;;;0.68;;
21038;SDS011;10678;51.002;4.786;2022-11-15T14:37:28;5.70;;;1.50;;
21038;SDS011;10678;51.002;4.786;2022-11-15T14:39:58;6.72;;;1.38;;
21038;SDS011;10678;51.002;4.786;2022-11-15T14:42:24;3.30;;;1.17;;
21038;SDS011;10678;51.002;4.786;2022-11-15T14:44:50;4.50;;;0.98;;
21038;SDS011;10678;51.002;4.786;2022-11-15T14:47:16;4.63;;;1.25;;
21038;SDS011;10678;51.002;4.786;2022-11-15T14:49:42;7.75;;;0.85;;
21038;SDS011;10678;51.002;4.786;2022-11-15T14:52:51;3.15;;;1.05;;
21038;SDS011;10678;51.002;4.786;2022-11-15T14:55:00;5.07;;;1.30;;
21038;SDS011;10678;51.002;4.786;2022-11-15T14:57:27;3.88;;;0.90;;
21038;SDS011;10678;51.002;4.786;2022-11-15T14:59:53;3.20;;;1.00;;
21038;SDS011;10678;51.002;4.786;2022-11-15T15:02:22;6.78;;;1.20;;
21038;SDS011;10678;51.002;4.786;2022-11-15T15:04:49;3.55;;;1.40;;
21038;SDS011;10678;51.002;4.786;2022-11-15T15:07:16;3.80;;;1.25;;
21038;SDS011;10678;51.002;4.786;2022-11-15T15:09:42;3.60;;;1.25;;
21038;SDS011;10678;51.002;4.786;2022-11-15T15:12:19;4.80;;;1.30;;
21038;SDS011;10678;51.002;4.786;2022-11-15T15:14:46;5.30;;;1.40;;
21038;SDS011;10678;51.002;4.786;2022-11-15T15:17:13;6.85;;;1.65;;
21038;SDS011;10678;51.002;4.786;2022-11-15T15:19:39;7.00;;;1.85;;
21038;SDS011;10678;51.002;4.786;2022-11-15T15:22:04;5.35;;;1.50;;
21038;SDS011;10678;51.002;4.786;2022-11-15T15:24:31;5.53;;;1.75;;
21038;SDS011;10678;51.002;4.786;2022-11-15T15:26:56;7.45;;;1.77;;
21038;SDS011;10678;51.002;4.786;2022-11-15T15:29:22;9.32;;;2.60;;
21038;SDS011;10678;51.002;4.786;2022-11-15T15:31:47;6.13;;;1.50;;
21038;SDS011;10678;51.002;4.786;2022-11-15T15:34:13;8.50;;;1.55;;
21038;SDS011;10678;51.002;4.786;2022-11-15T15:36:39;8.70;;;1.42;;
21038;SDS011;10678;51.002;4.786;2022-11-15T15:39:04;3.50;;;1.40;;
21038;SDS011;10678;51.002;4.786;2022-11-15T15:41:30;5.18;;;1.50;;
21038;SDS011;10678;51.002;4.786;2022-11-15T15:43:55;6.63;;;1.60;;
21038;SDS011;10678;51.002;4.786;2022-11-15T15:46:21;4.47;;;1.55;;
21038;SDS011;10678;51.002;4.786;2022-11-15T15:48:46;10.48;;;1.50;;
21038;SDS011;10678;51.002;4.786;2022-11-15T15:51:12;5.90;;;1.60;;
21038;SDS011;10678;51.002;4.786;2022-11-15T15:53:38;4.60;;;1.83;;
21038;SDS011;10678;51.002;4.786;2022-11-15T15:56:04;6.13;;;1.80;;
21038;SDS011;10678;51.002;4.786;2022-11-15T15:58:32;12.85;;;2.13;;
21038;SDS011;10678;51.002;4.786;2022-11-15T16:00:58;4.47;;;1.83;;
21038;SDS011;10678;51.002;4.786;2022-11-15T16:03:24;4.95;;;1.80;;
21038;SDS011;10678;51.002;4.786;2022-11-15T16:05:50;5.03;;;1.65;;
21038;SDS011;10678;51.002;4.786;2022-11-15T16:08:22;6.18;;;2.00;;
21038;SDS011;10678;51.002;4.786;2022-11-15T16:10:51;4.05;;;1.73;;
21038;SDS011;10678;51.002;4.786;2022-11-15T16:13:17;5.40;;;2.15;;
21038;SDS011;10678;51.002;4.786;2022-11-15T16:15:43;7.45;;;2.50;;
21038;SDS011;10678;51.002;4.786;2022-11-15T16:18:12;5.45;;;1.90;;
21038;SDS011;10678;51.002;4.786;2022-11-15T16:20:44;6.20;;;2.10;;
21038;SDS011;10678;51.002;4.786;2022-11-15T16:23:14;3.72;;;1.70;;
21038;SDS011;10678;51.002;4.786;2022-11-15T16:25:47;7.05;;;1.80;;
21038;SDS011;10678;51.002;4.786;2022-11-15T16:31:05;5.55;;;2.10;;
21038;SDS011;10678;51.002;4.786;2022-11-15T16:33:34;4.70;;;2.10;;
21038;SDS011;10678;51.002;4.786;2022-11-15T16:36:01;9.32;;;1.92;;
21038;SDS011;10678;51.002;4.786;2022-11-15T16:38:27;6.63;;;1.95;;
21038;SDS011;10678;51.002;4.786;2022-11-15T16:40:52;4.88;;;2.00;;
21038;SDS011;10678;51.002;4.786;2022-11-15T16:43:18;6.05;;;2.42;;
21038;SDS011;10678;51.002;4.786;2022-11-15T16:45:43;7.68;;;2.47;;
21038;SDS011;10678;51.002;4.786;2022-11-15T16:48:22;6.65;;;2.30;;
21038;SDS011;10678;51.002;4.786;2022-11-15T16:50:50;7.30;;;2.78;;
21038;SDS011;10678;51.002;4.786;2022-11-15T16:53:19;8.45;;;3.03;;
21038;SDS011;10678;51.002;4.786;2022-11-15T16:55:44;8.05;;;2.75;;
21038;SDS011;10678;51.002;4.786;2022-11-15T16:58:10;6.35;;;3.05;;
21038;SDS011;10678;51.002;4.786;2022-11-15T17:00:35;9.93;;;2.47;;
21038;SDS011;10678;51.002;4.786;2022-11-15T17:03:01;5.25;;;2.45;;
21038;SDS011;10678;51.002;4.786;2022-11-15T17:05:27;6.03;;;2.70;;
21038;SDS011;10678;51.002;4.786;2022-11-15T17:07:53;6.80;;;2.90;;
21038;SDS011;10678;51.002;4.786;2022-11-15T17:10:23;7.82;;;3.30;;
21038;SDS011;10678;51.002;4.786;2022-11-15T17:12:50;7.40;;;2.55;;
21038;SDS011;10678;51.002;4.786;2022-11-15T17:15:16;9.55;;;3.20;;